Time;durP1;ratioP1;P1;durP2;ratioP2;P2;SDS_P1;SDS_P2;PMS_P1;PMS_P2;Temp;Humidity;BMP_temperature;BMP_pressure;BME280_temperature;BME280_humidity;BME280_pressure;Samples;Min_cycle;Max_cycle;Signal;HPM_P1;HPM_P2
2023/04/30 00:02:10;;;;;;;15.88;9.63;;;;;;;8.04;100.00;101982.25;4873121;29;20045;-89
2023/04/30 00:04:35;;;;;;;19.13;9.95;;;;;;;8.09;100.00;101979.28;4857469;29;20041;-88
2023/04/30 00:07:01;;;;;;;20.17;8.68;;;;;;;8.07;100.00;101981.22;4887302;29;20045;-84
2023/04/30 00:09:26;;;;;;;21.17;9.70;;;;;;;7.98;100.00;101989.84;4841936;29;20045;-90
2023/04/30 00:11:52;;;;;;;18.23;8.93;;;;;;;7.98;100.00;101978.94;4867767;29;20040;-91
2023/04/30 00:14:17;;;;;;;18.73;10.23;;;;;;;8.02;100.00;101984.16;4853634;29;20080;-90
2023/04/30 00:16:43;;;;;;;15.90;9.98;;;;;;;7.90;100.00;101982.94;4846863;29;20148;-90
2023/04/30 00:19:08;;;;;;;17.85;10.38;;;;;;;7.86;100.00;101966.81;4861335;29;20402;-87
2023/04/30 00:21:34;;;;;;;16.70;9.13;;;;;;;7.87;100.00;101972.19;4898788;29;20037;-89
2023/04/30 00:23:59;;;;;;;15.25;9.63;;;;;;;7.75;100.00;101980.09;4886619;29;20124;-87
2023/04/30 00:26:25;;;;;;;20.35;10.30;;;;;;;7.74;100.00;101979.22;4879557;29;20037;-88
2023/04/30 00:28:51;;;;;;;22.52;10.60;;;;;;;7.72;100.00;101979.28;4902470;29;20041;-89
2023/04/30 00:31:16;;;;;;;18.25;10.50;;;;;;;7.82;100.00;101982.44;4859023;29;20041;-88
2023/04/30 00:33:42;;;;;;;17.38;10.73;;;;;;;7.78;100.00;101982.66;4892167;29;20165;-89
2023/04/30 00:36:10;;;;;;;22.45;11.25;;;;;;;7.70;100.00;101978.47;4883125;29;20046;-89
2023/04/30 00:38:36;;;;;;;20.55;11.60;;;;;;;7.68;100.00;101993.13;4840543;29;20101;-89
2023/04/30 00:41:01;;;;;;;21.13;10.70;;;;;;;7.66;100.00;101990.47;4855137;29;20052;-89
2023/04/30 00:43:26;;;;;;;15.93;9.77;;;;;;;7.47;100.00;101989.59;4884309;29;20049;-89
2023/04/30 00:45:52;;;;;;;21.08;10.73;;;;;;;7.57;100.00;101992.78;4886715;29;20272;-89
2023/04/30 00:48:18;;;;;;;16.13;9.68;;;;;;;7.55;100.00;101991.00;4872540;29;20049;-89
2023/04/30 00:50:43;;;;;;;21.20;11.23;;;;;;;7.57;100.00;102004.53;4843048;29;20048;-89
2023/04/30 00:53:10;;;;;;;19.63;10.95;;;;;;;7.54;100.00;101999.22;4867374;29;20113;-88
2023/04/30 00:55:36;;;;;;;19.02;10.57;;;;;;;7.58;100.00;101989.09;4888556;29;20136;-89
2023/04/30 00:58:02;;;;;;;17.13;11.02;;;;;;;7.40;100.00;101996.31;4875432;29;20049;-89
2023/04/30 01:00:28;;;;;;;19.33;10.98;;;;;;;7.48;100.00;101981.34;4870789;29;20041;-76
2023/04/30 01:02:55;;;;;;;19.05;10.88;;;;;;;7.55;100.00;101990.13;4833530;29;20455;-77
2023/04/30 01:05:21;;;;;;;25.45;11.02;;;;;;;7.69;100.00;101984.88;4843390;29;20049;-77
2023/04/30 01:07:48;;;;;;;20.63;11.57;;;;;;;7.63;100.00;101990.63;4859664;29;20045;-77
2023/04/30 01:10:15;;;;;;;19.63;11.32;;;;;;;7.61;100.00;101994.38;4874734;29;20049;-77
2023/04/30 01:12:50;;;;;;;20.98;11.43;;;;;;;7.47;100.00;101986.88;4848726;29;20133;-78
2023/04/30 01:15:35;;;;;;;22.55;11.65;;;;;;;7.54;100.00;101993.78;4875040;29;20036;-77
2023/04/30 01:18:11;;;;;;;22.77;12.25;;;;;;;7.64;100.00;101984.22;4875535;29;20033;-77
2023/04/30 01:20:48;;;;;;;20.13;11.43;;;;;;;7.39;100.00;101975.47;4860638;29;20462;-78
2023/04/30 01:23:38;;;;;;;24.65;11.68;;;;;;;7.46;100.00;101985.09;4832741;29;20409;-77
2023/04/30 01:26:12;;;;;;;19.55;11.32;;;;;;;7.34;100.00;101994.75;4855860;29;20041;-77
2023/04/30 01:28:39;;;;;;;21.73;12.02;;;;;;;7.35;100.00;101975.59;4872594;29;20037;-77
2023/04/30 01:31:13;;;;;;;24.65;12.57;;;;;;;7.30;100.00;101980.38;4874343;29;20073;-78
2023/04/30 01:33:39;;;;;;;19.30;11.63;;;;;;;7.24;100.00;101969.78;4847600;29;20498;-75
2023/04/30 01:36:31;;;;;;;20.60;12.05;;;;;;;7.22;100.00;101968.97;4834686;29;20061;-76
2023/04/30 01:39:30;;;;;;;24.88;13.00;;;;;;;7.28;100.00;101984.13;4823294;29;20034;-75
2023/04/30 01:42:20;;;;;;;26.42;13.30;;;;;;;7.16;100.00;101978.28;4848244;29;20030;-76
2023/04/30 01:44:56;;;;;;;21.00;11.52;;;;;;;7.14;100.00;101974.78;4833851;29;20053;-75
2023/04/30 01:47:36;;;;;;;24.52;12.30;;;;;;;7.04;100.00;101962.53;4826478;29;20045;-77
2023/04/30 01:50:34;;;;;;;21.23;11.73;;;;;;;7.01;100.00;101978.16;4840054;29;20138;-76
2023/04/30 01:53:05;;;;;;;22.27;12.80;;;;;;;6.94;100.00;101977.56;4805579;29;20109;-76
2023/04/30 01:55:55;;;;;;;19.17;12.35;;;;;;;6.89;100.00;101976.88;4843321;29;20093;-76
2023/04/30 01:58:24;;;;;;;21.83;12.23;;;;;;;6.82;100.00;101965.34;4840270;29;20041;-76
2023/04/30 02:00:50;;;;;;;19.08;11.77;;;;;;;6.80;100.00;101976.34;4831871;29;20502;-76
2023/04/30 02:03:15;;;;;;;20.70;12.15;;;;;;;6.74;100.00;101973.88;4828680;29;20043;-76
2023/04/30 02:05:41;;;;;;;26.00;12.45;;;;;;;6.70;100.00;101984.97;4836968;29;20512;-77
2023/04/30 02:08:06;;;;;;;24.90;12.48;;;;;;;6.61;100.00;101973.56;4835011;29;20635;-80
2023/04/30 02:10:32;;;;;;;25.90;11.43;;;;;;;6.56;100.00;101972.88;4825595;29;20038;-76
2023/04/30 02:12:58;;;;;;;23.25;12.13;;;;;;;6.59;100.00;101986.34;4804729;29;20038;-76
2023/04/30 02:15:23;;;;;;;20.50;12.30;;;;;;;6.57;100.00;101988.22;4832771;29;20057;-77
2023/04/30 02:17:49;;;;;;;25.02;12.48;;;;;;;6.64;100.00;101983.44;4822065;29;20053;-76
2023/04/30 02:20:14;;;;;;;24.20;13.77;;;;;;;6.67;100.00;101985.09;4847112;29;20107;-76
2023/04/30 02:22:40;;;;;;;25.33;13.07;;;;;;;6.63;100.00;101973.47;4823905;29;20115;-77
2023/04/30 02:25:06;;;;;;;24.88;13.18;;;;;;;6.59;100.00;101988.16;4829933;29;20482;-76
2023/04/30 02:27:32;;;;;;;24.50;13.52;;;;;;;6.71;100.00;101989.47;4840569;29;20159;-80
2023/04/30 02:29:58;;;;;;;22.80;13.77;;;;;;;6.63;100.00;101987.97;4855525;29;20124;-77
2023/04/30 02:32:24;;;;;;;25.23;13.02;;;;;;;6.71;100.00;101990.34;4820797;29;20430;-77
2023/04/30 02:34:49;;;;;;;26.13;14.13;;;;;;;6.67;100.00;101983.25;4824193;29;20038;-77
2023/04/30 02:37:15;;;;;;;23.23;13.45;;;;;;;6.62;100.00;101982.59;4827439;29;20058;-78
2023/04/30 02:39:41;;;;;;;28.13;14.80;;;;;;;6.60;100.00;101988.09;4806939;29;20576;-77
2023/04/30 02:42:10;;;;;;;38.92;15.10;;;;;;;6.66;100.00;101986.06;4836969;29;20033;-78
2023/04/30 02:44:35;;;;;;;26.63;15.02;;;;;;;6.60;100.00;101979.06;4854906;29;20038;-77
2023/04/30 02:47:01;;;;;;;28.63;13.98;;;;;;;6.58;100.00;101987.28;4840475;29;20477;-79
2023/04/30 02:49:27;;;;;;;20.38;13.25;;;;;;;6.56;100.00;101983.75;4855769;29;20034;-77
2023/04/30 02:51:53;;;;;;;24.50;14.57;;;;;;;6.44;100.00;101973.41;4853148;29;20079;-77
2023/04/30 02:54:18;;;;;;;25.48;13.60;;;;;;;6.39;100.00;101975.44;4839835;29;20038;-76
2023/04/30 02:56:44;;;;;;;28.92;13.55;;;;;;;6.38;100.00;101984.56;4810397;29;20062;-78
2023/04/30 02:59:10;;;;;;;22.38;13.85;;;;;;;6.31;100.00;101961.28;4820353;29;20049;-77
2023/04/30 03:01:35;;;;;;;25.05;14.15;;;;;;;6.34;100.00;101966.59;4854938;29;20091;-77
2023/04/30 03:04:02;;;;;;;26.60;13.02;;;;;;;6.38;100.00;101988.16;4840803;29;20099;-77
2023/04/30 03:06:28;;;;;;;23.15;13.82;;;;;;;6.39;100.00;101972.72;4856230;29;20049;-77
2023/04/30 03:08:54;;;;;;;35.45;14.50;;;;;;;6.46;100.00;101989.66;4807872;29;20045;-77
2023/04/30 03:11:20;;;;;;;32.85;13.73;;;;;;;6.38;100.00;101996.31;4810067;29;20038;-77
2023/04/30 03:13:50;;;;;;;23.17;14.32;;;;;;;6.42;100.00;101980.75;4840104;29;20113;-78
2023/04/30 03:16:16;;;;;;;24.58;14.80;;;;;;;6.31;100.00;101959.44;4841217;29;20125;-77
2023/04/30 03:18:42;;;;;;;25.80;13.98;;;;;;;6.30;100.00;101954.97;4825576;29;20026;-77
2023/04/30 03:21:10;;;;;;;24.52;14.40;;;;;;;6.47;100.00;101976.00;4822422;29;20053;-77
2023/04/30 03:23:36;;;;;;;24.92;14.02;;;;;;;6.38;100.00;101960.97;4825241;29;20038;-78
2023/04/30 03:26:01;;;;;;;27.88;14.02;;;;;;;6.43;100.00;101972.53;4810303;29;20046;-77
2023/04/30 03:28:27;;;;;;;25.95;13.88;;;;;;;6.35;100.00;101971.09;4820265;29;20046;-77
2023/04/30 03:30:52;;;;;;;26.17;13.05;;;;;;;6.30;100.00;101965.84;4840466;29;20041;-77
2023/04/30 03:33:17;;;;;;;24.65;14.48;;;;;;;6.25;100.00;101970.59;4810700;29;20033;-77
2023/04/30 03:35:43;;;;;;;22.75;13.85;;;;;;;6.23;100.00;101970.69;4836816;29;20060;-77
2023/04/30 03:38:09;;;;;;;23.83;13.20;;;;;;;6.24;100.00;101975.16;4841196;29;20069;-76
2023/04/30 03:40:34;;;;;;;23.90;13.48;;;;;;;6.28;100.00;101967.75;4808256;29;20068;-77
2023/04/30 03:42:59;;;;;;;27.42;14.85;;;;;;;6.33;100.00;101963.00;4843770;29;20069;-76
2023/04/30 03:45:29;;;;;;;25.95;14.52;;;;;;;6.22;100.00;101962.59;4826138;29;20133;-77
2023/04/30 03:47:54;;;;;;;24.15;14.48;;;;;;;6.37;100.00;101961.91;4831363;29;20053;-78
2023/04/30 03:50:20;;;;;;;28.35;15.10;;;;;;;6.38;100.00;101965.53;4826616;29;20042;-77
2023/04/30 03:52:45;;;;;;;29.85;15.13;;;;;;;6.39;100.00;101975.44;4838425;29;20507;-77
2023/04/30 03:55:11;;;;;;;23.75;14.40;;;;;;;6.40;100.00;101988.97;4825949;29;20455;-76
2023/04/30 03:57:39;;;;;;;25.15;14.45;;;;;;;6.29;100.00;101990.41;4841908;29;20038;-78
2023/04/30 04:00:09;;;;;;;24.65;14.93;;;;;;;6.16;100.00;101992.75;4836844;29;20492;-77
2023/04/30 04:02:35;;;;;;;34.17;15.60;;;;;;;6.12;100.00;101981.13;4839829;29;20046;-77
2023/04/30 04:05:02;;;;;;;23.08;14.27;;;;;;;6.14;100.00;101981.94;4852873;29;20076;-77
2023/04/30 04:07:27;;;;;;;27.90;14.35;;;;;;;6.08;100.00;101971.31;4844588;29;20045;-76
2023/04/30 04:09:53;;;;;;;24.70;13.82;;;;;;;6.03;100.00;101984.22;4827067;29;20049;-76
2023/04/30 04:12:18;;;;;;;26.05;14.77;;;;;;;6.03;100.00;102001.44;4822486;29;20114;-76
2023/04/30 04:14:44;;;;;;;30.42;15.50;;;;;;;6.07;100.00;101991.31;4809590;29;20037;-77
2023/04/30 04:17:09;;;;;;;27.20;15.95;;;;;;;5.92;100.00;101986.47;4827955;29;20053;-78
2023/04/30 04:19:35;;;;;;;30.17;16.25;;;;;;;6.03;100.00;101984.22;4843050;29;20410;-77
2023/04/30 04:22:01;;;;;;;29.20;16.85;;;;;;;6.01;100.00;101984.28;4827978;29;20133;-76
2023/04/30 04:24:27;;;;;;;28.60;16.80;;;;;;;6.03;100.00;101985.13;4820397;29;20053;-77
2023/04/30 04:26:52;;;;;;;36.03;16.30;;;;;;;6.10;100.00;101987.56;4811366;29;20038;-77
2023/04/30 04:29:18;;;;;;;29.17;16.83;;;;;;;6.07;100.00;101991.31;4842926;29;20041;-76
2023/04/30 04:31:44;;;;;;;30.88;17.38;;;;;;;6.13;100.00;102001.03;4839726;29;20050;-78
2023/04/30 04:34:09;;;;;;;34.28;17.10;;;;;;;5.98;100.00;102008.88;4836681;29;20077;-77
2023/04/30 04:36:35;;;;;;;27.80;16.65;;;;;;;6.03;100.00;102003.25;4863421;29;20461;-77
2023/04/30 04:39:01;;;;;;;30.80;17.85;;;;;;;6.07;100.00;101994.03;4877883;29;20072;-77
2023/04/30 04:41:27;;;;;;;34.60;16.70;;;;;;;6.17;100.00;102003.56;4854555;29;20065;-77
2023/04/30 04:43:53;;;;;;;30.10;17.52;;;;;;;6.27;100.00;102005.91;4848548;29;20039;-77
2023/04/30 04:46:19;;;;;;;36.53;17.73;;;;;;;6.22;100.00;101990.66;4845523;29;20132;-77
2023/04/30 04:48:45;;;;;;;35.35;18.08;;;;;;;6.33;100.00;102019.22;4845708;29;20033;-79
2023/04/30 04:51:11;;;;;;;28.08;16.95;;;;;;;6.31;100.00;101994.81;4844819;29;20057;-77
2023/04/30 04:53:37;;;;;;;28.25;16.42;;;;;;;6.40;100.00;102016.19;4832772;29;20049;-77
2023/04/30 04:56:03;;;;;;;25.85;16.45;;;;;;;6.45;100.00;102024.16;4863048;29;20044;-77
2023/04/30 04:58:29;;;;;;;28.85;16.30;;;;;;;6.38;100.00;102019.94;4828440;29;20041;-78
2023/04/30 05:00:56;;;;;;;31.95;16.02;;;;;;;6.53;100.00;102034.72;4875283;29;20097;-77
2023/04/30 05:03:21;;;;;;;33.42;17.10;;;;;;;6.50;100.00;102021.22;4876910;29;20041;-77
2023/04/30 05:05:47;;;;;;;25.40;15.57;;;;;;;6.48;100.00;102017.66;4847206;29;20033;-77
2023/04/30 05:08:12;;;;;;;33.88;17.27;;;;;;;6.53;100.00;102032.00;4863146;29;20137;-77
2023/04/30 05:10:38;;;;;;;25.25;16.55;;;;;;;6.59;100.00;102035.31;4875709;29;20043;-80
2023/04/30 05:13:03;;;;;;;30.05;17.52;;;;;;;6.62;100.00;102029.75;4857289;29;20033;-76
2023/04/30 05:15:29;;;;;;;29.00;16.77;;;;;;;6.67;100.00;102028.66;4862494;29;20136;-77
2023/04/30 05:17:55;;;;;;;29.75;16.85;;;;;;;6.66;100.00;102025.06;4861246;29;20044;-77
2023/04/30 05:20:21;;;;;;;29.80;17.30;;;;;;;6.79;100.00;102033.56;4880523;29;20041;-77
2023/04/30 05:22:46;;;;;;;35.08;18.77;;;;;;;6.76;100.00;102009.22;4847027;29;20049;-77
2023/04/30 05:25:11;;;;;;;36.63;17.65;;;;;;;6.93;100.00;102032.94;4878378;29;20052;-78
2023/04/30 05:27:37;;;;;;;29.48;16.27;;;;;;;7.16;100.00;102037.34;4863063;29;20060;-79
2023/04/30 05:30:03;;;;;;;28.25;16.83;;;;;;;7.25;100.00;102019.72;4862885;29;20124;-77
2023/04/30 05:32:28;;;;;;;25.02;16.45;;;;;;;7.55;100.00;102039.16;4855523;29;20519;-78
2023/04/30 05:34:54;;;;;;;29.13;16.17;;;;;;;7.81;100.00;102037.06;4829956;29;20049;-78
2023/04/30 05:37:21;;;;;;;25.80;15.98;;;;;;;8.07;100.00;102014.81;4846731;29;20145;-78
2023/04/30 05:39:47;;;;;;;34.10;16.13;;;;;;;8.22;100.00;102026.81;4824565;29;20045;-77
2023/04/30 05:42:12;;;;;;;21.08;14.43;;;;;;;8.19;100.00;102028.81;4854318;29;20049;-78
2023/04/30 05:44:39;;;;;;;25.65;14.48;;;;;;;8.40;100.00;102030.44;4848587;29;20110;-79
2023/04/30 05:47:05;;;;;;;31.17;14.43;;;;;;;8.46;100.00;102030.19;4828852;29;20125;-77
2023/04/30 05:49:31;;;;;;;24.85;14.18;;;;;;;8.94;100.00;102024.94;4824197;29;20119;-79
2023/04/30 05:51:56;;;;;;;23.02;13.77;;;;;;;9.11;100.00;102032.22;4843165;29;20125;-79
2023/04/30 05:54:22;;;;;;;25.63;13.70;;;;;;;9.20;100.00;102018.06;4823224;29;20038;-78
2023/04/30 05:56:47;;;;;;;18.33;12.85;;;;;;;9.09;100.00;102036.03;4825422;29;20383;-77
2023/04/30 05:59:13;;;;;;;19.80;13.13;;;;;;;9.45;100.00;102021.31;4836131;29;20180;-77
2023/04/30 06:01:38;;;;;;;18.60;12.95;;;;;;;9.70;100.00;102037.22;4847562;29;20494;-80
2023/04/30 06:04:04;;;;;;;22.38;12.40;;;;;;;9.85;100.00;102027.25;4823574;29;20432;-78
2023/04/30 06:06:30;;;;;;;17.45;12.02;;;;;;;9.98;100.00;102035.63;4818600;29;20049;-79
2023/04/30 06:08:56;;;;;;;24.38;12.27;;;;;;;10.33;100.00;102032.72;4808001;29;20038;-77
2023/04/30 06:11:24;;;;;;;22.48;12.23;;;;;;;10.20;100.00;102018.84;4853751;29;20042;-78
2023/04/30 06:13:52;;;;;;;19.67;11.63;;;;;;;10.16;100.00;102014.53;4826672;29;20406;-76
2023/04/30 06:16:18;;;;;;;21.33;10.82;;;;;;;10.73;100.00;102033.09;4812019;29;20038;-77
2023/04/30 06:18:45;;;;;;;21.90;10.70;;;;;;;11.05;100.00;102031.06;4839644;29;20444;-77
2023/04/30 06:21:11;;;;;;;20.33;11.68;;;;;;;11.28;100.00;102036.97;4825266;29;20045;-78
2023/04/30 06:23:37;;;;;;;15.10;10.18;;;;;;;10.97;100.00;102030.66;4853251;29;20045;-80
2023/04/30 06:26:02;;;;;;;17.73;10.73;;;;;;;11.28;100.00;102035.16;4831971;29;20048;-79
2023/04/30 06:28:28;;;;;;;18.35;10.77;;;;;;;11.30;100.00;102027.69;4826036;29;20056;-80
2023/04/30 06:30:54;;;;;;;17.40;11.48;;;;;;;11.82;100.00;102031.66;4843314;29;20038;-78
2023/04/30 06:33:20;;;;;;;20.10;10.55;;;;;;;11.88;100.00;102025.78;4826009;29;20482;-80
2023/04/30 06:35:46;;;;;;;23.75;10.95;;;;;;;11.82;100.00;102028.03;4830182;29;20057;-79
2023/04/30 06:38:12;;;;;;;23.10;11.25;;;;;;;11.85;100.00;102025.97;4855189;29;20072;-80
2023/04/30 06:40:39;;;;;;;16.30;10.13;;;;;;;12.59;100.00;102032.06;4876861;29;20075;-78
2023/04/30 06:43:04;;;;;;;18.48;10.15;;;;;;;12.92;100.00;102029.81;4830183;29;20136;-77
2023/04/30 06:45:30;;;;;;;14.48;9.82;;;;;;;13.23;100.00;102025.75;4858776;29;20029;-76
2023/04/30 06:47:56;;;;;;;23.45;11.23;;;;;;;12.95;100.00;102035.97;4845112;29;20186;-76
2023/04/30 06:50:21;;;;;;;15.70;9.50;;;;;;;13.23;100.00;102034.00;4845684;29;20060;-76
2023/04/30 06:52:47;;;;;;;19.98;9.77;;;;;;;13.87;100.00;102039.50;4860495;29;20481;-76
2023/04/30 06:55:13;;;;;;;18.63;9.60;;;;;;;13.47;100.00;102036.91;4872270;29;20044;-75
2023/04/30 06:57:38;;;;;;;18.33;9.07;;;;;;;14.18;100.00;102036.31;4871861;29;20053;-76
2023/04/30 07:00:11;;;;;;;16.60;8.60;;;;;;;13.91;100.00;102037.38;4881889;29;20412;-79
2023/04/30 07:02:36;;;;;;;12.57;8.48;;;;;;;14.04;100.00;102037.34;4846212;29;20100;-77
2023/04/30 07:05:02;;;;;;;15.10;8.88;;;;;;;14.18;100.00;102031.66;4892563;29;20581;-76
2023/04/30 07:07:27;;;;;;;13.65;8.68;;;;;;;14.48;100.00;102045.00;4875564;29;20405;-77
2023/04/30 07:09:53;;;;;;;16.15;8.60;;;;;;;14.57;100.00;102032.38;4827656;29;20070;-76
2023/04/30 07:12:20;;;;;;;17.90;9.18;;;;;;;14.64;100.00;102032.81;4860854;29;20412;-77
2023/04/30 07:14:45;;;;;;;13.68;9.43;;;;;;;14.79;100.00;102042.66;4830162;29;20033;-76
2023/04/30 07:17:13;;;;;;;16.40;9.00;;;;;;;14.86;100.00;102037.53;4847438;29;20119;-76
2023/04/30 07:19:39;;;;;;;15.93;9.18;;;;;;;14.95;100.00;102028.53;4847636;29;20041;-78
2023/04/30 07:22:04;;;;;;;12.57;8.43;;;;;;;15.15;100.00;102026.06;4864329;29;20048;-77
2023/04/30 07:24:30;;;;;;;13.82;9.38;;;;;;;15.11;100.00;102016.28;4861702;29;20060;-77
2023/04/30 07:26:56;;;;;;;15.48;8.98;;;;;;;16.02;100.00;102020.84;4859176;29;20037;-77
2023/04/30 07:29:21;;;;;;;16.42;8.80;;;;;;;15.77;100.00;102027.50;4847862;29;20101;-76
2023/04/30 07:31:46;;;;;;;16.20;9.65;;;;;;;16.33;100.00;102019.13;4850482;29;20194;-76
2023/04/30 07:34:12;;;;;;;13.20;8.80;;;;;;;16.09;100.00;102021.22;4834007;29;20116;-78
2023/04/30 07:36:38;;;;;;;15.25;9.48;;;;;;;15.61;100.00;102020.47;4864877;29;20057;-77
2023/04/30 07:39:04;;;;;;;13.98;8.25;;;;;;;16.10;100.00;102031.25;4868324;29;20454;-77
2023/04/30 07:41:30;;;;;;;14.27;8.88;;;;;;;16.12;100.00;102030.13;4866459;29;20179;-77
2023/04/30 07:43:55;;;;;;;13.60;8.98;;;;;;;15.32;100.00;102020.06;4881694;29;20146;-78
2023/04/30 07:46:23;;;;;;;15.02;9.65;;;;;;;16.45;100.00;102013.56;4882387;29;20230;-77
2023/04/30 07:48:49;;;;;;;15.10;9.75;;;;;;;16.41;100.00;102018.47;4864163;29;20037;-77
2023/04/30 07:51:15;;;;;;;15.95;9.85;;;;;;;16.85;100.00;102016.53;4881967;29;20490;-76
2023/04/30 07:53:40;;;;;;;14.93;9.38;;;;;;;16.74;100.00;102024.84;4879654;29;20510;-79
2023/04/30 07:56:07;;;;;;;13.85;8.52;;;;;;;16.65;100.00;102017.38;4866363;29;20029;-80
2023/04/30 07:58:33;;;;;;;14.82;8.98;;;;;;;17.21;94.21;102021.75;4865614;29;20064;-77
2023/04/30 08:00:58;;;;;;;15.15;9.10;;;;;;;17.89;84.37;102008.25;4847809;29;20132;-77
2023/04/30 08:03:23;;;;;;;17.35;9.20;;;;;;;16.97;99.79;102022.00;4862284;29;20065;-78
2023/04/30 08:05:49;;;;;;;15.93;9.63;;;;;;;17.07;97.30;102011.91;4881595;29;20052;-78
2023/04/30 08:08:15;;;;;;;12.27;8.82;;;;;;;16.98;100.00;102027.41;4834091;29;20533;-77
2023/04/30 08:10:40;;;;;;;13.93;9.23;;;;;;;16.94;91.94;102030.56;4878165;29;20033;-77
2023/04/30 08:13:06;;;;;;;12.63;9.00;;;;;;;18.11;85.78;102025.66;4864019;29;20033;-79
2023/04/30 08:15:35;;;;;;;19.08;8.82;;;;;;;17.72;85.81;102029.13;4877634;29;20056;-81
2023/04/30 08:18:01;;;;;;;15.82;9.30;;;;;;;17.08;100.00;102038.56;4841498;29;20068;-77
2023/04/30 08:20:26;;;;;;;15.95;9.38;;;;;;;17.90;92.93;102032.16;4854426;29;20397;-78
2023/04/30 08:22:52;;;;;;;12.05;8.77;;;;;;;18.14;87.44;102034.56;4860706;29;20037;-78
2023/04/30 08:25:17;;;;;;;15.18;9.27;;;;;;;17.33;91.29;102009.59;4863968;29;20052;-78
2023/04/30 08:27:43;;;;;;;16.40;10.40;;;;;;;17.31;98.65;102035.63;4849416;29;20143;-76
2023/04/30 08:30:09;;;;;;;13.23;8.75;;;;;;;17.87;87.32;102026.88;4867550;29;20104;-77
2023/04/30 08:32:35;;;;;;;14.32;8.73;;;;;;;17.97;81.07;102027.81;4878238;29;20481;-76
2023/04/30 08:35:04;;;;;;;14.30;8.77;;;;;;;18.44;81.12;102035.47;4874657;29;20378;-78
2023/04/30 08:37:30;;;;;;;14.88;8.98;;;;;;;18.30;80.38;102039.56;4836245;29;20158;-78
2023/04/30 08:39:55;;;;;;;15.10;9.32;;;;;;;18.37;77.41;102037.09;4841711;29;20486;-77
2023/04/30 08:42:24;;;;;;;14.35;9.07;;;;;;;17.71;83.34;102029.28;4835699;29;20367;-76
2023/04/30 08:44:50;;;;;;;14.23;8.45;;;;;;;19.18;70.67;102022.91;4821260;29;20035;-77
2023/04/30 08:47:17;;;;;;;15.20;9.32;;;;;;;18.71;72.76;102020.91;4843027;29;20140;-77
2023/04/30 08:49:43;;;;;;;17.27;8.52;;;;;;;18.05;85.63;102015.13;4844370;29;20098;-78
2023/04/30 08:52:09;;;;;;;12.10;8.32;;;;;;;18.28;75.64;102024.97;4824727;29;20182;-80
2023/04/30 08:54:35;;;;;;;17.75;8.63;;;;;;;18.18;74.62;102005.56;4832494;29;20117;-80
2023/04/30 08:57:01;;;;;;;14.70;8.98;;;;;;;18.51;79.46;102013.59;4857836;29;20108;-78
2023/04/30 08:59:27;;;;;;;18.15;9.20;;;;;;;19.04;73.91;102012.31;4842623;29;20153;-78
2023/04/30 09:01:52;;;;;;;11.25;7.50;;;;;;;18.45;74.03;102003.97;4838434;29;20453;-78
2023/04/30 09:04:18;;;;;;;17.77;9.02;;;;;;;18.41;74.00;102013.59;4827176;29;20030;-78
2023/04/30 09:06:43;;;;;;;10.88;8.48;;;;;;;19.02;74.69;102006.00;4856794;29;20854;-78
2023/04/30 09:09:11;;;;;;;13.75;9.20;;;;;;;18.75;78.32;102002.06;4841891;29;20099;-78
2023/04/30 09:11:37;;;;;;;14.82;8.77;;;;;;;19.12;74.65;102006.88;4830966;29;20041;-78
2023/04/30 09:14:02;;;;;;;12.05;8.35;;;;;;;19.02;70.06;102017.09;4842430;29;20037;-78
2023/04/30 09:16:44;;;;;;;11.90;6.70;;;;;;;19.54;69.43;102000.88;4825715;29;20442;-78
2023/04/30 09:19:30;;;;;;;13.47;8.60;;;;;;;19.27;70.23;102010.91;4843484;29;20042;-79
2023/04/30 09:21:57;;;;;;;14.95;7.57;;;;;;;19.41;67.86;102011.47;4839134;29;20102;-78
2023/04/30 09:24:23;;;;;;;12.13;7.68;;;;;;;19.67;65.90;102010.78;4826435;29;20030;-79
2023/04/30 09:26:49;;;;;;;14.52;8.18;;;;;;;19.34;67.69;102002.88;4827620;29;20129;-78
2023/04/30 09:29:15;;;;;;;12.90;7.15;;;;;;;20.15;63.24;102009.66;4839702;29;20042;-78
2023/04/30 09:31:46;;;;;;;12.65;7.38;;;;;;;19.78;65.39;102005.94;4837106;29;20029;-77
2023/04/30 09:34:12;;;;;;;13.30;8.45;;;;;;;19.51;64.16;102008.66;4840950;29;20060;-80
2023/04/30 09:36:53;;;;;;;10.25;7.60;;;;;;;19.62;63.41;102009.31;4834814;29;20045;-77
2023/04/30 09:39:19;;;;;;;10.52;7.15;;;;;;;19.61;62.73;101996.47;4866592;29;20045;-77
2023/04/30 09:41:45;;;;;;;9.85;7.13;;;;;;;19.61;63.90;101999.25;4858479;29;20053;-77
2023/04/30 09:44:27;;;;;;;17.60;7.50;;;;;;;19.72;61.86;102000.94;4841773;29;20042;-78
2023/04/30 09:46:55;;;;;;;10.45;7.00;;;;;;;20.15;57.44;101993.00;4846254;29;20121;-77
2023/04/30 09:49:21;;;;;;;8.98;6.32;;;;;;;19.17;66.06;101995.31;4841621;29;20065;-77
2023/04/30 09:52:04;;;;;;;9.20;6.53;;;;;;;20.06;61.32;101997.59;4864734;29;20072;-78
2023/04/30 09:54:31;;;;;;;12.57;6.18;;;;;;;19.86;61.97;101994.06;4841079;29;20053;-79
2023/04/30 09:56:58;;;;;;;8.13;5.20;;;;;;;20.31;60.73;102001.50;4861585;29;20040;-79
2023/04/30 09:59:34;;;;;;;7.03;4.60;;;;;;;19.34;59.87;101991.75;4843318;29;20045;-79
2023/04/30 10:02:07;;;;;;;11.23;6.05;;;;;;;19.85;62.67;101989.50;4838292;29;20034;-78
2023/04/30 10:04:37;;;;;;;7.55;5.78;;;;;;;19.63;62.35;101983.31;4854590;29;20053;-78
2023/04/30 10:07:07;;;;;;;9.70;6.50;;;;;;;19.89;60.83;101992.84;4874129;29;20041;-78
2023/04/30 10:10:06;;;;;;;11.57;6.43;;;;;;;20.68;62.06;101989.41;4837310;29;20125;-78
2023/04/30 10:12:50;;;;;;;7.38;5.63;;;;;;;20.31;63.98;101986.75;4836093;29;20114;-77
2023/04/30 10:15:33;;;;;;;10.02;4.97;;;;;;;20.18;55.87;101992.69;4841186;29;20494;-77
2023/04/30 10:18:05;;;;;;;8.40;5.00;;;;;;;20.30;60.10;101984.97;4861588;29;20042;-77
2023/04/30 10:20:35;;;;;;;10.10;5.13;;;;;;;20.14;59.13;101967.09;4832991;29;20038;-81
2023/04/30 10:23:01;;;;;;;8.32;4.93;;;;;;;19.74;61.80;101975.78;4831385;29;20064;-79
2023/04/30 10:25:27;;;;;;;8.05;5.40;;;;;;;19.05;62.09;101977.94;4866524;29;20077;-79
2023/04/30 10:27:53;;;;;;;14.50;4.88;;;;;;;19.26;60.17;101975.84;4827279;29;20066;-79
2023/04/30 10:30:21;;;;;;;8.60;5.00;;;;;;;19.79;60.76;101976.22;4868237;29;20110;-80
2023/04/30 10:33:05;;;;;;;6.03;4.30;;;;;;;19.41;57.88;101976.25;4824937;29;20130;-79
2023/04/30 10:35:39;;;;;;;4.65;3.92;;;;;;;19.27;57.21;101968.41;4866914;29;20045;-79
2023/04/30 10:38:26;;;;;;;4.40;3.53;;;;;;;19.14;59.01;101968.72;4870180;29;20060;-80
2023/04/30 10:41:02;;;;;;;5.65;4.13;;;;;;;20.72;53.16;101965.75;4872804;29;20033;-79
2023/04/30 10:43:33;;;;;;;4.65;4.10;;;;;;;19.61;58.33;101962.25;4866983;29;20037;-79
2023/04/30 10:45:59;;;;;;;7.30;4.22;;;;;;;20.14;55.36;101966.22;4876754;29;20029;-79
2023/04/30 10:48:25;;;;;;;7.10;4.63;;;;;;;19.98;54.47;101953.88;4879418;29;20401;-80
2023/04/30 10:50:59;;;;;;;6.47;4.63;;;;;;;20.00;54.41;101960.19;4866872;29;20034;-79
2023/04/30 10:53:26;;;;;;;5.43;4.32;;;;;;;19.90;57.18;101955.69;4880920;29;20052;-79
2023/04/30 10:55:53;;;;;;;5.07;3.75;;;;;;;20.57;57.33;101950.66;4867643;29;20036;-80
2023/04/30 10:58:26;;;;;;;4.78;3.47;;;;;;;20.33;55.11;101954.06;4868013;29;20029;-80
2023/04/30 11:01:16;;;;;;;6.32;3.75;;;;;;;20.30;55.27;101937.69;4872040;29;20033;-79
2023/04/30 11:04:02;;;;;;;5.07;4.57;;;;;;;20.18;53.25;101942.63;4849250;29;20093;-79
2023/04/30 11:06:58;;;;;;;6.53;3.63;;;;;;;19.68;58.18;101926.38;4878614;29;20041;-78
2023/04/30 11:09:36;;;;;;;6.20;4.00;;;;;;;18.75;60.67;101935.47;4868735;29;20378;-79
2023/04/30 11:12:10;;;;;;;5.20;4.32;;;;;;;19.19;59.81;101930.28;4885035;29;20032;-79
2023/04/30 11:14:41;;;;;;;4.75;4.35;;;;;;;19.36;58.94;101919.38;4884721;29;20512;-80
2023/04/30 11:17:06;;;;;;;8.48;4.93;;;;;;;19.80;60.63;101919.63;4868924;29;20126;-79